sensor_id;sensor_type;location;lat;lon;timestamp;pressure;altitude;pressure_sealevel;temperature;humidity
62952;BME280;52163;52.212;-1.002;2022-08-11T00:01:52;101327.45;;;18.00;61.11
62952;BME280;52163;52.212;-1.002;2022-08-11T00:04:20;101333.38;;;17.95;61.20
62952;BME280;52163;52.212;-1.002;2022-08-11T00:06:48;101334.16;;;17.90;61.38
62952;BME280;52163;52.212;-1.002;2022-08-11T00:09:20;101332.60;;;17.84;61.47
62952;BME280;52163;52.212;-1.002;2022-08-11T00:11:54;101326.34;;;17.77;61.71
62952;BME280;52163;52.212;-1.002;2022-08-11T00:14:24;101328.61;;;17.74;61.74
62952;BME280;52163;52.212;-1.002;2022-08-11T00:19:24;101327.46;;;17.67;62.03
62952;BME280;52163;52.212;-1.002;2022-08-11T00:21:50;101327.95;;;17.68;62.12
62952;BME280;52163;52.212;-1.002;2022-08-11T00:24:18;101326.93;;;17.67;62.11
62952;BME280;52163;52.212;-1.002;2022-08-11T00:26:48;101326.08;;;17.67;62.08
62952;BME280;52163;52.212;-1.002;2022-08-11T00:29:14;101327.10;;;17.65;62.18
62952;BME280;52163;52.212;-1.002;2022-08-11T00:31:46;101325.55;;;17.64;62.27
62952;BME280;52163;52.212;-1.002;2022-08-11T00:34:15;101322.82;;;17.63;62.10
62952;BME280;52163;52.212;-1.002;2022-08-11T00:36:54;101320.23;;;17.59;62.19
62952;BME280;52163;52.212;-1.002;2022-08-11T00:39:24;101322.34;;;17.55;62.27
62952;BME280;52163;52.212;-1.002;2022-08-11T00:47:25;101319.22;;;17.40;62.65
62952;BME280;52163;52.212;-1.002;2022-08-11T00:55:40;101315.20;;;17.24;62.97
62952;BME280;52163;52.212;-1.002;2022-08-11T01:12:25;101314.45;;;17.10;63.40
62952;BME280;52163;52.212;-1.002;2022-08-11T01:39:14;101299.44;;;16.62;64.47
62952;BME280;52163;52.212;-1.002;2022-08-11T01:56:45;101298.25;;;16.39;64.82
62952;BME280;52163;52.212;-1.002;2022-08-11T01:59:04;101295.67;;;16.33;64.86
62952;BME280;52163;52.212;-1.002;2022-08-11T02:07:00;101302.02;;;16.16;65.21
62952;BME280;52163;52.212;-1.002;2022-08-11T02:12:14;101302.38;;;16.06;65.74
62952;BME280;52163;52.212;-1.002;2022-08-11T02:20:25;101302.31;;;16.00;65.96
62952;BME280;52163;52.212;-1.002;2022-08-11T02:23:22;101306.33;;;15.98;65.88
62952;BME280;52163;52.212;-1.002;2022-08-11T02:28:45;101305.08;;;15.93;65.97
62952;BME280;52163;52.212;-1.002;2022-08-11T02:36:43;101296.03;;;15.79;66.18
62952;BME280;52163;52.212;-1.002;2022-08-11T02:39:17;101295.48;;;15.74;66.29
62952;BME280;52163;52.212;-1.002;2022-08-11T02:41:58;101289.13;;;15.68;66.50
62952;BME280;52163;52.212;-1.002;2022-08-11T02:45:27;101287.71;;;15.63;66.68
62952;BME280;52163;52.212;-1.002;2022-08-11T02:59:48;101292.87;;;15.52;66.85
62952;BME280;52163;52.212;-1.002;2022-08-11T03:10:22;101287.27;;;15.38;66.78
62952;BME280;52163;52.212;-1.002;2022-08-11T03:16:15;101291.39;;;15.24;66.86
62952;BME280;52163;52.212;-1.002;2022-08-11T03:22:02;101288.45;;;15.12;67.15
62952;BME280;52163;52.212;-1.002;2022-08-11T03:24:41;101288.64;;;15.09;67.22
62952;BME280;52163;52.212;-1.002;2022-08-11T03:27:25;101290.05;;;15.09;67.19
62952;BME280;52163;52.212;-1.002;2022-08-11T03:36:09;101287.37;;;15.02;67.20
62952;BME280;52163;52.212;-1.002;2022-08-11T03:41:40;101287.34;;;14.92;67.55
62952;BME280;52163;52.212;-1.002;2022-08-11T03:44:22;101286.48;;;14.86;67.73
62952;BME280;52163;52.212;-1.002;2022-08-11T03:49:33;101279.79;;;14.77;67.89
62952;BME280;52163;52.212;-1.002;2022-08-11T04:03:36;101271.63;;;14.79;68.61
62952;BME280;52163;52.212;-1.002;2022-08-11T04:36:36;101271.61;;;14.51;68.99
62952;BME280;52163;52.212;-1.002;2022-08-11T04:48:43;101277.68;;;14.32;70.06
62952;BME280;52163;52.212;-1.002;2022-08-11T04:58:08;101273.29;;;14.33;69.92
62952;BME280;52163;52.212;-1.002;2022-08-11T05:10:27;101285.06;;;14.30;70.05
62952;BME280;52163;52.212;-1.002;2022-08-11T05:13:06;101284.89;;;14.30;70.42
62952;BME280;52163;52.212;-1.002;2022-08-11T05:15:58;101288.17;;;14.34;70.68
62952;BME280;52163;52.212;-1.002;2022-08-11T05:18:50;101286.66;;;14.41;70.72
62952;BME280;52163;52.212;-1.002;2022-08-11T05:21:35;101285.25;;;14.49;70.75
62952;BME280;52163;52.212;-1.002;2022-08-11T05:24:36;101287.58;;;14.60;71.15
62952;BME280;52163;52.212;-1.002;2022-08-11T05:27:38;101294.85;;;14.78;70.99
62952;BME280;52163;52.212;-1.002;2022-08-11T05:30:28;101295.54;;;15.08;70.43
62952;BME280;52163;52.212;-1.002;2022-08-11T05:33:33;101293.27;;;15.47;69.97
62952;BME280;52163;52.212;-1.002;2022-08-11T05:39:16;101289.85;;;15.94;68.52
62952;BME280;52163;52.212;-1.002;2022-08-11T05:42:04;101296.31;;;16.11;67.97
62952;BME280;52163;52.212;-1.002;2022-08-11T05:44:50;101296.46;;;16.24;67.49
62952;BME280;52163;52.212;-1.002;2022-08-11T05:47:37;101297.20;;;16.31;67.15
62952;BME280;52163;52.212;-1.002;2022-08-11T05:50:22;101299.51;;;16.36;66.66
62952;BME280;52163;52.212;-1.002;2022-08-11T05:53:12;101299.89;;;16.38;66.30
62952;BME280;52163;52.212;-1.002;2022-08-11T05:55:57;101296.54;;;16.38;66.19
62952;BME280;52163;52.212;-1.002;2022-08-11T05:58:48;101294.85;;;16.34;66.08
62952;BME280;52163;52.212;-1.002;2022-08-11T06:01:32;101292.98;;;16.38;66.10
62952;BME280;52163;52.212;-1.002;2022-08-11T06:03:58;101297.55;;;16.44;66.03
62952;BME280;52163;52.212;-1.002;2022-08-11T06:07:04;101298.42;;;16.47;65.67
62952;BME280;52163;52.212;-1.002;2022-08-11T06:09:37;101296.88;;;16.46;65.57
62952;BME280;52163;52.212;-1.002;2022-08-11T06:12:06;101294.36;;;16.48;65.69
62952;BME280;52163;52.212;-1.002;2022-08-11T06:14:34;101290.09;;;16.51;65.82
62952;BME280;52163;52.212;-1.002;2022-08-11T06:17:05;101290.27;;;16.53;65.69
62952;BME280;52163;52.212;-1.002;2022-08-11T06:19:37;101292.16;;;16.57;65.67
62952;BME280;52163;52.212;-1.002;2022-08-11T06:22:04;101293.36;;;16.60;65.60
62952;BME280;52163;52.212;-1.002;2022-08-11T06:24:31;101288.28;;;16.61;65.52
62952;BME280;52163;52.212;-1.002;2022-08-11T06:26:59;101295.02;;;16.61;65.78
62952;BME280;52163;52.212;-1.002;2022-08-11T06:29:26;101293.88;;;16.65;65.71
62952;BME280;52163;52.212;-1.002;2022-08-11T06:32:02;101295.64;;;16.70;65.69
62952;BME280;52163;52.212;-1.002;2022-08-11T06:37:19;101297.05;;;16.90;65.72
62952;BME280;52163;52.212;-1.002;2022-08-11T06:40:08;101297.92;;;17.00;65.76
62952;BME280;52163;52.212;-1.002;2022-08-11T06:47:41;101297.84;;;17.34;65.29
62952;BME280;52163;52.212;-1.002;2022-08-11T06:50:09;101295.86;;;17.42;65.11
62952;BME280;52163;52.212;-1.002;2022-08-11T06:52:55;101292.66;;;17.51;64.93
62952;BME280;52163;52.212;-1.002;2022-08-11T06:55:22;101296.72;;;17.58;64.71
62952;BME280;52163;52.212;-1.002;2022-08-11T06:58:12;101291.99;;;17.66;64.58
62952;BME280;52163;52.212;-1.002;2022-08-11T07:01:05;101289.04;;;17.74;64.46
62952;BME280;52163;52.212;-1.002;2022-08-11T07:03:47;101290.17;;;17.81;64.29
62952;BME280;52163;52.212;-1.002;2022-08-11T07:09:32;101279.90;;;18.02;63.79
62952;BME280;52163;52.212;-1.002;2022-08-11T07:12:38;101278.77;;;18.17;63.74
62952;BME280;52163;52.212;-1.002;2022-08-11T07:15:32;101274.63;;;18.31;63.33
62952;BME280;52163;52.212;-1.002;2022-08-11T07:18:16;101274.10;;;18.42;62.98
62952;BME280;52163;52.212;-1.002;2022-08-11T07:21:09;101267.19;;;18.54;62.80
62952;BME280;52163;52.212;-1.002;2022-08-11T07:24:13;101270.55;;;18.66;62.41
62952;BME280;52163;52.212;-1.002;2022-08-11T07:26:59;101267.55;;;18.76;62.19
62952;BME280;52163;52.212;-1.002;2022-08-11T07:29:45;101270.02;;;18.85;62.00
62952;BME280;52163;52.212;-1.002;2022-08-11T07:32:28;101269.00;;;18.93;61.82
62952;BME280;52163;52.212;-1.002;2022-08-11T07:34:58;101269.17;;;19.02;61.63
62952;BME280;52163;52.212;-1.002;2022-08-11T07:37:29;101273.84;;;19.10;61.49
62952;BME280;52163;52.212;-1.002;2022-08-11T07:39:58;101272.64;;;19.20;61.27
62952;BME280;52163;52.212;-1.002;2022-08-11T07:42:29;101271.40;;;19.29;61.21
62952;BME280;52163;52.212;-1.002;2022-08-11T07:44:56;101273.30;;;19.38;61.08
62952;BME280;52163;52.212;-1.002;2022-08-11T07:47:42;101273.08;;;19.49;60.85
62952;BME280;52163;52.212;-1.002;2022-08-11T07:50:29;101272.66;;;19.60;60.71
62952;BME280;52163;52.212;-1.002;2022-08-11T07:53:14;101274.89;;;19.71;60.51
62952;BME280;52163;52.212;-1.002;2022-08-11T07:55:41;101271.45;;;19.80;60.29
62952;BME280;52163;52.212;-1.002;2022-08-11T07:58:08;101272.92;;;19.90;60.49
62952;BME280;52163;52.212;-1.002;2022-08-11T08:00:56;101269.44;;;20.02;60.26
62952;BME280;52163;52.212;-1.002;2022-08-11T08:03:42;101273.55;;;20.12;60.04
62952;BME280;52163;52.212;-1.002;2022-08-11T08:06:28;101272.77;;;20.23;60.25
62952;BME280;52163;52.212;-1.002;2022-08-11T08:09:17;101272.95;;;20.33;60.23
62952;BME280;52163;52.212;-1.002;2022-08-11T08:12:03;101269.51;;;20.43;59.51
62952;BME280;52163;52.212;-1.002;2022-08-11T08:14:50;101263.17;;;20.54;59.13
62952;BME280;52163;52.212;-1.002;2022-08-11T08:17:35;101267.44;;;20.64;58.68
62952;BME280;52163;52.212;-1.002;2022-08-11T08:20:22;101266.91;;;20.74;58.14
62952;BME280;52163;52.212;-1.002;2022-08-11T08:22:59;101270.82;;;20.85;57.96
62952;BME280;52163;52.212;-1.002;2022-08-11T08:25:29;101271.52;;;20.95;57.31
62952;BME280;52163;52.212;-1.002;2022-08-11T08:27:56;101268.83;;;21.05;56.79
62952;BME280;52163;52.212;-1.002;2022-08-11T08:30:24;101268.22;;;21.13;56.27
62952;BME280;52163;52.212;-1.002;2022-08-11T08:33:11;101265.05;;;21.24;56.17
62952;BME280;52163;52.212;-1.002;2022-08-11T08:35:38;101264.48;;;21.34;55.64
62952;BME280;52163;52.212;-1.002;2022-08-11T08:38:05;101260.96;;;21.43;55.34
62952;BME280;52163;52.212;-1.002;2022-08-11T08:40:30;101262.55;;;21.53;55.15
62952;BME280;52163;52.212;-1.002;2022-08-11T08:42:58;101258.80;;;21.60;54.84
62952;BME280;52163;52.212;-1.002;2022-08-11T08:45:28;101256.41;;;21.68;54.62
62952;BME280;52163;52.212;-1.002;2022-08-11T08:47:59;101259.52;;;21.79;54.60
62952;BME280;52163;52.212;-1.002;2022-08-11T08:50:30;101263.45;;;21.90;54.40
62952;BME280;52163;52.212;-1.002;2022-08-11T08:53:20;101255.10;;;22.02;54.10
62952;BME280;52163;52.212;-1.002;2022-08-11T08:55:47;101255.73;;;22.14;53.84
62952;BME280;52163;52.212;-1.002;2022-08-11T08:58:15;101252.38;;;22.25;53.44
62952;BME280;52163;52.212;-1.002;2022-08-11T09:00:44;101249.31;;;22.32;53.15
62952;BME280;52163;52.212;-1.002;2022-08-11T09:03:12;101246.89;;;22.42;52.68
62952;BME280;52163;52.212;-1.002;2022-08-11T09:05:39;101242.45;;;22.51;52.05
62952;BME280;52163;52.212;-1.002;2022-08-11T09:08:05;101238.59;;;22.63;51.69
62952;BME280;52163;52.212;-1.002;2022-08-11T09:10:32;101237.05;;;22.73;51.28
62952;BME280;52163;52.212;-1.002;2022-08-11T09:12:58;101235.13;;;22.81;50.68
62952;BME280;52163;52.212;-1.002;2022-08-11T09:15:25;101235.52;;;22.90;50.55
62952;BME280;52163;52.212;-1.002;2022-08-11T09:17:56;101235.52;;;22.99;50.08
62952;BME280;52163;52.212;-1.002;2022-08-11T09:20:37;101231.70;;;23.06;49.86
62952;BME280;52163;52.212;-1.002;2022-08-11T09:23:06;101231.13;;;23.15;49.46
62952;BME280;52163;52.212;-1.002;2022-08-11T09:25:58;101227.23;;;23.26;49.41
62952;BME280;52163;52.212;-1.002;2022-08-11T09:28:44;101228.81;;;23.39;48.10
62952;BME280;52163;52.212;-1.002;2022-08-11T09:31:11;101230.80;;;23.47;47.90
62952;BME280;52163;52.212;-1.002;2022-08-11T09:33:38;101232.11;;;23.57;46.97
62952;BME280;52163;52.212;-1.002;2022-08-11T09:36:06;101229.63;;;23.64;47.21
62952;BME280;52163;52.212;-1.002;2022-08-11T09:38:51;101225.34;;;23.74;46.64
62952;BME280;52163;52.212;-1.002;2022-08-11T09:41:37;101224.89;;;23.87;46.37
62952;BME280;52163;52.212;-1.002;2022-08-11T09:44:05;101227.63;;;23.97;46.13
62952;BME280;52163;52.212;-1.002;2022-08-11T09:46:51;101228.59;;;24.08;46.07
62952;BME280;52163;52.212;-1.002;2022-08-11T09:49:19;101231.36;;;24.16;45.57
62952;BME280;52163;52.212;-1.002;2022-08-11T09:51:49;101227.89;;;24.23;44.81
62952;BME280;52163;52.212;-1.002;2022-08-11T09:54:16;101228.66;;;24.31;45.22
62952;BME280;52163;52.212;-1.002;2022-08-11T09:56:42;101226.55;;;24.41;45.07
62952;BME280;52163;52.212;-1.002;2022-08-11T09:59:27;101222.45;;;24.52;43.52
62952;BME280;52163;52.212;-1.002;2022-08-11T10:01:57;101222.16;;;24.58;43.29
62952;BME280;52163;52.212;-1.002;2022-08-11T10:04:57;101219.62;;;24.61;43.01
62952;BME280;52163;52.212;-1.002;2022-08-11T10:07:49;101220.44;;;24.64;42.28
62952;BME280;52163;52.212;-1.002;2022-08-11T10:10:18;101217.92;;;24.69;41.71
62952;BME280;52163;52.212;-1.002;2022-08-11T10:13:08;101214.38;;;24.73;42.09
62952;BME280;52163;52.212;-1.002;2022-08-11T10:15:35;101220.70;;;24.83;41.86
62952;BME280;52163;52.212;-1.002;2022-08-11T10:18:06;101218.13;;;24.89;41.16
62952;BME280;52163;52.212;-1.002;2022-08-11T10:21:14;101214.17;;;24.93;40.94
62952;BME280;52163;52.212;-1.002;2022-08-11T10:23:42;101211.84;;;24.98;40.75
62952;BME280;52163;52.212;-1.002;2022-08-11T10:26:28;101206.15;;;25.06;40.45
62952;BME280;52163;52.212;-1.002;2022-08-11T10:29:14;101209.91;;;25.11;40.05
62952;BME280;52163;52.212;-1.002;2022-08-11T10:32:00;101210.73;;;25.20;40.16
62952;BME280;52163;52.212;-1.002;2022-08-11T10:34:46;101209.89;;;25.29;40.11
62952;BME280;52163;52.212;-1.002;2022-08-11T10:37:14;101206.55;;;25.33;40.10
62952;BME280;52163;52.212;-1.002;2022-08-11T10:39:40;101203.85;;;25.38;39.71
62952;BME280;52163;52.212;-1.002;2022-08-11T10:42:08;101207.66;;;25.41;38.42
62952;BME280;52163;52.212;-1.002;2022-08-11T10:44:54;101210.37;;;25.46;38.70
62952;BME280;52163;52.212;-1.002;2022-08-11T10:47:21;101211.55;;;25.51;38.83
62952;BME280;52163;52.212;-1.002;2022-08-11T10:50:07;101205.48;;;25.58;38.61
62952;BME280;52163;52.212;-1.002;2022-08-11T10:52:53;101204.58;;;25.69;38.62
62952;BME280;52163;52.212;-1.002;2022-08-11T10:55:38;101200.56;;;25.75;38.47
62952;BME280;52163;52.212;-1.002;2022-08-11T10:58:25;101196.45;;;25.81;38.55
62952;BME280;52163;52.212;-1.002;2022-08-11T11:01:12;101191.48;;;25.88;37.92
62952;BME280;52163;52.212;-1.002;2022-08-11T11:03:39;101184.08;;;25.93;37.70
62952;BME280;52163;52.212;-1.002;2022-08-11T11:06:28;101183.25;;;26.02;37.65
62952;BME280;52163;52.212;-1.002;2022-08-11T11:11:46;101178.15;;;26.33;37.79
62952;BME280;52163;52.212;-1.002;2022-08-11T11:14:33;101173.41;;;26.45;37.14
62952;BME280;52163;52.212;-1.002;2022-08-11T11:17:50;101172.10;;;26.49;36.93
62952;BME280;52163;52.212;-1.002;2022-08-11T11:20:56;101177.34;;;26.57;36.39
62952;BME280;52163;52.212;-1.002;2022-08-11T11:23:31;101176.07;;;26.59;35.98
62952;BME280;52163;52.212;-1.002;2022-08-11T11:31:45;101162.30;;;26.96;35.17
62952;BME280;52163;52.212;-1.002;2022-08-11T11:36:47;101161.02;;;27.11;35.08
62952;BME280;52163;52.212;-1.002;2022-08-11T11:39:17;101161.09;;;27.19;35.21
62952;BME280;52163;52.212;-1.002;2022-08-11T11:41:43;101163.36;;;27.29;34.44
62952;BME280;52163;52.212;-1.002;2022-08-11T11:44:11;101166.30;;;27.42;34.23
62952;BME280;52163;52.212;-1.002;2022-08-11T11:46:38;101165.91;;;27.51;33.92
62952;BME280;52163;52.212;-1.002;2022-08-11T11:49:05;101167.84;;;27.58;34.26
62952;BME280;52163;52.212;-1.002;2022-08-11T11:51:35;101166.69;;;27.64;33.66
62952;BME280;52163;52.212;-1.002;2022-08-11T11:54:01;101164.20;;;27.65;33.54
62952;BME280;52163;52.212;-1.002;2022-08-11T11:56:30;101165.59;;;27.66;33.30
62952;BME280;52163;52.212;-1.002;2022-08-11T11:58:56;101163.48;;;27.63;32.77
62952;BME280;52163;52.212;-1.002;2022-08-11T12:01:40;101162.19;;;27.63;32.91
62952;BME280;52163;52.212;-1.002;2022-08-11T12:04:08;101154.77;;;27.71;33.02
62952;BME280;52163;52.212;-1.002;2022-08-11T12:06:35;101151.76;;;27.82;32.98
62952;BME280;52163;52.212;-1.002;2022-08-11T12:09:02;101147.16;;;27.98;32.80
62952;BME280;52163;52.212;-1.002;2022-08-11T12:11:29;101143.51;;;28.07;32.91
62952;BME280;52163;52.212;-1.002;2022-08-11T12:14:18;101145.67;;;28.16;31.84
62952;BME280;52163;52.212;-1.002;2022-08-11T12:16:46;101144.20;;;28.17;31.26
62952;BME280;52163;52.212;-1.002;2022-08-11T12:19:16;101136.39;;;28.18;31.08
62952;BME280;52163;52.212;-1.002;2022-08-11T12:21:42;101137.45;;;28.19;31.39
62952;BME280;52163;52.212;-1.002;2022-08-11T12:24:29;101138.52;;;28.21;31.29
62952;BME280;52163;52.212;-1.002;2022-08-11T12:27:14;101128.95;;;28.19;31.32
62952;BME280;52163;52.212;-1.002;2022-08-11T12:29:49;101128.17;;;28.18;31.27
62952;BME280;52163;52.212;-1.002;2022-08-11T12:32:16;101127.84;;;28.15;31.27
62952;BME280;52163;52.212;-1.002;2022-08-11T12:34:42;101125.20;;;28.12;31.68
62952;BME280;52163;52.212;-1.002;2022-08-11T12:37:08;101117.88;;;28.13;31.36
62952;BME280;52163;52.212;-1.002;2022-08-11T12:39:43;101117.55;;;28.19;31.85
62952;BME280;52163;52.212;-1.002;2022-08-11T12:42:30;101119.99;;;28.35;31.93
62952;BME280;52163;52.212;-1.002;2022-08-11T12:45:16;101114.98;;;28.42;31.77
62952;BME280;52163;52.212;-1.002;2022-08-11T12:48:03;101113.27;;;28.44;31.14
62952;BME280;52163;52.212;-1.002;2022-08-11T12:50:51;101114.39;;;28.45;30.51
62952;BME280;52163;52.212;-1.002;2022-08-11T12:53:42;101114.14;;;28.46;30.10
62952;BME280;52163;52.212;-1.002;2022-08-11T12:56:10;101105.66;;;28.48;30.05
62952;BME280;52163;52.212;-1.002;2022-08-11T12:58:56;101104.09;;;28.58;29.85
62952;BME280;52163;52.212;-1.002;2022-08-11T13:01:42;101097.80;;;28.68;30.06
62952;BME280;52163;52.212;-1.002;2022-08-11T13:04:27;101092.92;;;28.78;29.96
62952;BME280;52163;52.212;-1.002;2022-08-11T13:07:13;101090.33;;;28.83;30.57
62952;BME280;52163;52.212;-1.002;2022-08-11T13:09:40;101086.61;;;28.89;30.15
62952;BME280;52163;52.212;-1.002;2022-08-11T13:12:07;101085.14;;;28.92;29.98
62952;BME280;52163;52.212;-1.002;2022-08-11T13:14:53;101080.20;;;28.95;29.52
62952;BME280;52163;52.212;-1.002;2022-08-11T13:17:20;101081.13;;;28.96;29.28
62952;BME280;52163;52.212;-1.002;2022-08-11T13:19:47;101075.08;;;29.00;29.48
62952;BME280;52163;52.212;-1.002;2022-08-11T13:22:17;101075.25;;;29.04;30.00
62952;BME280;52163;52.212;-1.002;2022-08-11T13:24:44;101075.60;;;29.07;29.64
62952;BME280;52163;52.212;-1.002;2022-08-11T13:27:10;101074.55;;;29.09;29.72
62952;BME280;52163;52.212;-1.002;2022-08-11T13:29:41;101071.71;;;29.10;29.67
62952;BME280;52163;52.212;-1.002;2022-08-11T13:32:07;101072.80;;;29.10;29.35
62952;BME280;52163;52.212;-1.002;2022-08-11T13:34:33;101067.23;;;29.11;29.15
62952;BME280;52163;52.212;-1.002;2022-08-11T13:37:06;101066.27;;;29.15;28.92
62952;BME280;52163;52.212;-1.002;2022-08-11T13:39:35;101065.54;;;29.20;28.78
62952;BME280;52163;52.212;-1.002;2022-08-11T13:42:03;101055.63;;;29.26;28.79
62952;BME280;52163;52.212;-1.002;2022-08-11T13:44:31;101053.38;;;29.33;28.64
62952;BME280;52163;52.212;-1.002;2022-08-11T13:47:02;101048.23;;;29.36;28.09
62952;BME280;52163;52.212;-1.002;2022-08-11T13:49:34;101044.70;;;29.40;28.72
62952;BME280;52163;52.212;-1.002;2022-08-11T13:52:02;101041.82;;;29.44;28.51
62952;BME280;52163;52.212;-1.002;2022-08-11T13:54:34;101044.39;;;29.48;28.37
62952;BME280;52163;52.212;-1.002;2022-08-11T13:57:04;101040.87;;;29.51;28.05
62952;BME280;52163;52.212;-1.002;2022-08-11T13:59:30;101037.06;;;29.56;28.69
62952;BME280;52163;52.212;-1.002;2022-08-11T14:02:02;101034.44;;;29.65;28.85
62952;BME280;52163;52.212;-1.002;2022-08-11T14:04:34;101029.50;;;29.74;28.72
62952;BME280;52163;52.212;-1.002;2022-08-11T14:07:06;101025.34;;;29.79;28.40
62952;BME280;52163;52.212;-1.002;2022-08-11T14:09:39;101026.86;;;29.82;27.98
62952;BME280;52163;52.212;-1.002;2022-08-11T14:12:36;101030.52;;;29.85;27.66
62952;BME280;52163;52.212;-1.002;2022-08-11T14:15:30;101027.00;;;29.91;27.58
62952;BME280;52163;52.212;-1.002;2022-08-11T14:17:59;101020.83;;;29.99;27.72
62952;BME280;52163;52.212;-1.002;2022-08-11T14:20:29;101020.50;;;30.08;27.69
62952;BME280;52163;52.212;-1.002;2022-08-11T14:23:15;101015.23;;;30.17;27.49
62952;BME280;52163;52.212;-1.002;2022-08-11T14:25:41;101017.51;;;30.28;28.10
62952;BME280;52163;52.212;-1.002;2022-08-11T14:28:28;101014.92;;;30.42;27.76
62952;BME280;52163;52.212;-1.002;2022-08-11T14:30:54;101010.84;;;30.47;27.70
62952;BME280;52163;52.212;-1.002;2022-08-11T14:33:19;101007.30;;;30.46;27.66
62952;BME280;52163;52.212;-1.002;2022-08-11T14:35:46;101001.05;;;30.45;27.47
62952;BME280;52163;52.212;-1.002;2022-08-11T14:38:11;101002.27;;;30.45;27.61
62952;BME280;52163;52.212;-1.002;2022-08-11T14:40:37;100998.98;;;30.47;27.83
62952;BME280;52163;52.212;-1.002;2022-08-11T14:43:24;100998.39;;;30.50;27.70
62952;BME280;52163;52.212;-1.002;2022-08-11T14:46:08;100996.50;;;30.51;27.68
62952;BME280;52163;52.212;-1.002;2022-08-11T14:48:53;100998.98;;;30.50;27.46
62952;BME280;52163;52.212;-1.002;2022-08-11T14:51:20;100997.80;;;30.47;27.39
62952;BME280;52163;52.212;-1.002;2022-08-11T14:53:47;100997.56;;;30.43;27.36
62952;BME280;52163;52.212;-1.002;2022-08-11T14:56:13;100993.74;;;30.40;27.40
62952;BME280;52163;52.212;-1.002;2022-08-11T14:58:59;100997.66;;;30.38;27.39
62952;BME280;52163;52.212;-1.002;2022-08-11T15:01:24;100997.27;;;30.37;27.39
62952;BME280;52163;52.212;-1.002;2022-08-11T15:04:09;100988.11;;;30.35;27.47
62952;BME280;52163;52.212;-1.002;2022-08-11T15:06:36;100988.36;;;30.36;27.63
62952;BME280;52163;52.212;-1.002;2022-08-11T15:09:02;100987.58;;;30.37;27.63
62952;BME280;52163;52.212;-1.002;2022-08-11T15:11:31;100980.77;;;30.36;27.70
62952;BME280;52163;52.212;-1.002;2022-08-11T15:14:15;100980.09;;;30.36;27.81
62952;BME280;52163;52.212;-1.002;2022-08-11T15:17:02;100974.50;;;30.38;27.98
62952;BME280;52163;52.212;-1.002;2022-08-11T15:19:32;100972.27;;;30.43;27.82
62952;BME280;52163;52.212;-1.002;2022-08-11T15:21:58;100969.94;;;30.47;27.61
62952;BME280;52163;52.212;-1.002;2022-08-11T15:24:59;100969.41;;;30.53;27.54
62952;BME280;52163;52.212;-1.002;2022-08-11T15:27:26;100966.36;;;30.56;27.40
62952;BME280;52163;52.212;-1.002;2022-08-11T15:30:12;100963.55;;;30.60;27.53
62952;BME280;52163;52.212;-1.002;2022-08-11T15:32:57;100963.81;;;30.61;27.26
62952;BME280;52163;52.212;-1.002;2022-08-11T15:35:42;100959.84;;;30.57;26.78
62952;BME280;52163;52.212;-1.002;2022-08-11T15:38:27;100955.39;;;30.55;27.13
62952;BME280;52163;52.212;-1.002;2022-08-11T15:40:55;100953.88;;;30.54;27.45
62952;BME280;52163;52.212;-1.002;2022-08-11T15:43:43;100956.07;;;30.54;27.28
62952;BME280;52163;52.212;-1.002;2022-08-11T15:49:03;100947.73;;;30.45;27.22
62952;BME280;52163;52.212;-1.002;2022-08-11T15:51:38;100950.80;;;30.47;27.40
62952;BME280;52163;52.212;-1.002;2022-08-11T15:54:12;100947.65;;;30.46;27.29
62952;BME280;52163;52.212;-1.002;2022-08-11T15:56:43;100946.77;;;30.43;26.79
62952;BME280;52163;52.212;-1.002;2022-08-11T15:59:10;100945.87;;;30.40;26.80
62952;BME280;52163;52.212;-1.002;2022-08-11T16:01:56;100937.77;;;30.38;26.96
62952;BME280;52163;52.212;-1.002;2022-08-11T16:04:43;100935.69;;;30.36;26.71
62952;BME280;52163;52.212;-1.002;2022-08-11T16:07:15;100934.61;;;30.33;26.81
62952;BME280;52163;52.212;-1.002;2022-08-11T16:09:47;100931.70;;;30.32;27.16
62952;BME280;52163;52.212;-1.002;2022-08-11T16:12:18;100927.94;;;30.30;27.02
62952;BME280;52163;52.212;-1.002;2022-08-11T16:14:48;100931.73;;;30.29;27.31
62952;BME280;52163;52.212;-1.002;2022-08-11T16:17:40;100926.27;;;30.29;27.19
62952;BME280;52163;52.212;-1.002;2022-08-11T16:20:09;100930.89;;;30.27;27.25
62952;BME280;52163;52.212;-1.002;2022-08-11T16:22:37;100925.05;;;30.26;27.32
62952;BME280;52163;52.212;-1.002;2022-08-11T16:25:14;100923.07;;;30.25;27.05
62952;BME280;52163;52.212;-1.002;2022-08-11T16:27:46;100916.55;;;30.25;27.35
62952;BME280;52163;52.212;-1.002;2022-08-11T16:30:12;100923.44;;;30.25;27.59
62952;BME280;52163;52.212;-1.002;2022-08-11T16:32:42;100922.88;;;30.25;27.64
62952;BME280;52163;52.212;-1.002;2022-08-11T16:35:14;100924.80;;;30.24;27.68
62952;BME280;52163;52.212;-1.002;2022-08-11T16:38:01;100920.79;;;30.21;27.70
62952;BME280;52163;52.212;-1.002;2022-08-11T16:40:48;100917.67;;;30.19;27.14
62952;BME280;52163;52.212;-1.002;2022-08-11T16:43:17;100915.70;;;30.17;26.97
62952;BME280;52163;52.212;-1.002;2022-08-11T16:46:03;100912.52;;;30.15;27.43
62952;BME280;52163;52.212;-1.002;2022-08-11T16:48:49;100909.65;;;30.12;27.52
62952;BME280;52163;52.212;-1.002;2022-08-11T16:51:18;100903.90;;;30.10;27.65
62952;BME280;52163;52.212;-1.002;2022-08-11T16:53:46;100905.83;;;30.08;27.71
62952;BME280;52163;52.212;-1.002;2022-08-11T16:58:58;100902.73;;;30.04;27.28
62952;BME280;52163;52.212;-1.002;2022-08-11T17:02:01;100899.51;;;30.02;27.51
62952;BME280;52163;52.212;-1.002;2022-08-11T17:07:19;100897.80;;;29.97;27.75
62952;BME280;52163;52.212;-1.002;2022-08-11T17:10:05;100896.46;;;29.95;27.47
62952;BME280;52163;52.212;-1.002;2022-08-11T17:12:50;100890.55;;;29.92;27.47
62952;BME280;52163;52.212;-1.002;2022-08-11T17:15:38;100893.66;;;29.89;27.38
62952;BME280;52163;52.212;-1.002;2022-08-11T17:18:25;100886.81;;;29.83;27.55